sensor_id;sensor_type;location;lat;lon;timestamp;P1;durP1;ratioP1;P2;durP2;ratioP2
56331;SDS011;42237;53.340;6.812;2022-08-21T00:00:03;26.58;;;12.38;;
56331;SDS011;42237;53.340;6.812;2022-08-21T00:02:32;24.25;;;12.20;;
56331;SDS011;42237;53.340;6.812;2022-08-21T00:04:58;24.55;;;11.70;;
56331;SDS011;42237;53.340;6.812;2022-08-21T00:07:24;28.38;;;11.93;;
56331;SDS011;42237;53.340;6.812;2022-08-21T00:09:50;25.35;;;12.77;;
56331;SDS011;42237;53.340;6.812;2022-08-21T00:12:16;21.55;;;12.10;;
56331;SDS011;42237;53.340;6.812;2022-08-21T00:14:42;20.63;;;10.98;;
56331;SDS011;42237;53.340;6.812;2022-08-21T00:17:08;28.83;;;12.13;;
56331;SDS011;42237;53.340;6.812;2022-08-21T00:19:34;28.02;;;13.35;;
56331;SDS011;42237;53.340;6.812;2022-08-21T00:21:59;24.88;;;11.48;;
56331;SDS011;42237;53.340;6.812;2022-08-21T00:24:25;20.27;;;10.68;;
56331;SDS011;42237;53.340;6.812;2022-08-21T00:26:51;27.35;;;12.55;;
56331;SDS011;42237;53.340;6.812;2022-08-21T00:29:17;25.70;;;11.70;;
56331;SDS011;42237;53.340;6.812;2022-08-21T00:31:44;24.13;;;11.57;;
56331;SDS011;42237;53.340;6.812;2022-08-21T00:34:10;20.67;;;11.40;;
56331;SDS011;42237;53.340;6.812;2022-08-21T00:36:36;23.45;;;12.98;;
56331;SDS011;42237;53.340;6.812;2022-08-21T00:39:06;26.08;;;12.35;;
56331;SDS011;42237;53.340;6.812;2022-08-21T00:41:33;23.27;;;11.95;;
56331;SDS011;42237;53.340;6.812;2022-08-21T00:44:00;25.13;;;11.27;;
56331;SDS011;42237;53.340;6.812;2022-08-21T00:46:26;23.08;;;12.63;;
56331;SDS011;42237;53.340;6.812;2022-08-21T00:48:52;22.42;;;12.88;;
56331;SDS011;42237;53.340;6.812;2022-08-21T00:51:27;33.28;;;14.15;;
56331;SDS011;42237;53.340;6.812;2022-08-21T00:53:59;21.00;;;13.88;;
56331;SDS011;42237;53.340;6.812;2022-08-21T00:56:27;26.83;;;13.50;;
56331;SDS011;42237;53.340;6.812;2022-08-21T00:58:53;21.17;;;14.20;;
56331;SDS011;42237;53.340;6.812;2022-08-21T01:01:21;22.17;;;13.90;;
56331;SDS011;42237;53.340;6.812;2022-08-21T01:03:47;20.75;;;14.07;;
56331;SDS011;42237;53.340;6.812;2022-08-21T01:06:14;25.70;;;13.18;;
56331;SDS011;42237;53.340;6.812;2022-08-21T01:08:39;28.88;;;12.55;;
56331;SDS011;42237;53.340;6.812;2022-08-21T01:11:07;21.48;;;12.07;;
56331;SDS011;42237;53.340;6.812;2022-08-21T01:13:34;22.00;;;10.52;;
56331;SDS011;42237;53.340;6.812;2022-08-21T01:16:03;18.33;;;9.95;;
56331;SDS011;42237;53.340;6.812;2022-08-21T01:18:33;22.60;;;10.15;;
56331;SDS011;42237;53.340;6.812;2022-08-21T01:21:18;16.80;;;9.93;;
56331;SDS011;42237;53.340;6.812;2022-08-21T01:23:48;15.27;;;8.80;;
56331;SDS011;42237;53.340;6.812;2022-08-21T01:26:17;18.30;;;9.68;;
56331;SDS011;42237;53.340;6.812;2022-08-21T01:28:52;16.50;;;8.77;;
56331;SDS011;42237;53.340;6.812;2022-08-21T01:31:26;16.83;;;8.02;;
56331;SDS011;42237;53.340;6.812;2022-08-21T01:33:53;18.55;;;9.05;;
56331;SDS011;42237;53.340;6.812;2022-08-21T01:36:20;18.35;;;9.50;;
56331;SDS011;42237;53.340;6.812;2022-08-21T01:38:47;16.30;;;9.55;;
56331;SDS011;42237;53.340;6.812;2022-08-21T01:41:13;17.70;;;9.93;;
56331;SDS011;42237;53.340;6.812;2022-08-21T01:43:41;21.85;;;9.23;;
56331;SDS011;42237;53.340;6.812;2022-08-21T01:46:08;18.52;;;8.82;;
56331;SDS011;42237;53.340;6.812;2022-08-21T01:48:35;16.70;;;9.32;;
56331;SDS011;42237;53.340;6.812;2022-08-21T01:51:00;17.38;;;9.27;;
56331;SDS011;42237;53.340;6.812;2022-08-21T01:53:26;19.70;;;9.13;;
56331;SDS011;42237;53.340;6.812;2022-08-21T01:55:52;20.10;;;8.75;;
56331;SDS011;42237;53.340;6.812;2022-08-21T01:58:18;14.40;;;9.50;;
56331;SDS011;42237;53.340;6.812;2022-08-21T02:00:44;18.85;;;9.27;;
56331;SDS011;42237;53.340;6.812;2022-08-21T02:03:09;19.70;;;8.70;;
56331;SDS011;42237;53.340;6.812;2022-08-21T02:05:35;16.48;;;8.20;;
56331;SDS011;42237;53.340;6.812;2022-08-21T02:08:01;15.85;;;8.27;;
56331;SDS011;42237;53.340;6.812;2022-08-21T02:10:28;19.38;;;8.43;;
56331;SDS011;42237;53.340;6.812;2022-08-21T02:12:56;22.85;;;8.05;;
56331;SDS011;42237;53.340;6.812;2022-08-21T02:15:23;19.35;;;9.15;;
56331;SDS011;42237;53.340;6.812;2022-08-21T02:17:51;15.13;;;7.95;;
56331;SDS011;42237;53.340;6.812;2022-08-21T02:20:20;16.25;;;7.80;;
56331;SDS011;42237;53.340;6.812;2022-08-21T02:22:57;14.93;;;8.50;;
56331;SDS011;42237;53.340;6.812;2022-08-21T02:25:23;14.32;;;7.57;;
56331;SDS011;42237;53.340;6.812;2022-08-21T02:27:50;20.08;;;8.15;;
56331;SDS011;42237;53.340;6.812;2022-08-21T02:30:18;17.55;;;8.90;;
56331;SDS011;42237;53.340;6.812;2022-08-21T02:32:49;15.77;;;8.85;;
56331;SDS011;42237;53.340;6.812;2022-08-21T02:35:15;18.30;;;8.80;;
56331;SDS011;42237;53.340;6.812;2022-08-21T02:37:49;15.43;;;8.80;;
56331;SDS011;42237;53.340;6.812;2022-08-21T02:40:17;19.48;;;9.52;;
56331;SDS011;42237;53.340;6.812;2022-08-21T02:42:45;16.15;;;7.88;;
56331;SDS011;42237;53.340;6.812;2022-08-21T02:45:11;19.63;;;9.43;;
56331;SDS011;42237;53.340;6.812;2022-08-21T02:47:39;17.70;;;8.80;;
56331;SDS011;42237;53.340;6.812;2022-08-21T02:50:06;18.50;;;9.10;;
56331;SDS011;42237;53.340;6.812;2022-08-21T02:52:32;20.40;;;9.25;;
56331;SDS011;42237;53.340;6.812;2022-08-21T02:55:00;17.88;;;9.55;;
56331;SDS011;42237;53.340;6.812;2022-08-21T02:57:26;20.15;;;9.20;;
56331;SDS011;42237;53.340;6.812;2022-08-21T02:59:51;25.15;;;9.07;;
56331;SDS011;42237;53.340;6.812;2022-08-21T03:02:17;20.75;;;8.57;;
56331;SDS011;42237;53.340;6.812;2022-08-21T03:04:42;21.80;;;8.98;;
56331;SDS011;42237;53.340;6.812;2022-08-21T03:07:08;14.55;;;8.05;;
56331;SDS011;42237;53.340;6.812;2022-08-21T03:09:34;18.60;;;8.88;;
56331;SDS011;42237;53.340;6.812;2022-08-21T03:12:00;23.55;;;8.65;;
56331;SDS011;42237;53.340;6.812;2022-08-21T03:14:26;19.83;;;9.32;;
56331;SDS011;42237;53.340;6.812;2022-08-21T03:16:51;18.05;;;8.40;;
56331;SDS011;42237;53.340;6.812;2022-08-21T03:19:17;21.15;;;9.55;;
56331;SDS011;42237;53.340;6.812;2022-08-21T03:21:43;19.95;;;8.15;;
56331;SDS011;42237;53.340;6.812;2022-08-21T03:24:08;19.77;;;9.82;;
56331;SDS011;42237;53.340;6.812;2022-08-21T03:26:34;21.05;;;8.98;;
56331;SDS011;42237;53.340;6.812;2022-08-21T03:29:00;17.63;;;8.50;;
56331;SDS011;42237;53.340;6.812;2022-08-21T03:31:26;24.27;;;9.32;;
56331;SDS011;42237;53.340;6.812;2022-08-21T03:33:56;20.63;;;10.15;;
56331;SDS011;42237;53.340;6.812;2022-08-21T03:36:22;18.65;;;10.57;;
56331;SDS011;42237;53.340;6.812;2022-08-21T03:38:49;24.95;;;10.02;;
56331;SDS011;42237;53.340;6.812;2022-08-21T03:41:14;17.23;;;9.48;;
56331;SDS011;42237;53.340;6.812;2022-08-21T03:43:40;19.80;;;10.05;;
56331;SDS011;42237;53.340;6.812;2022-08-21T03:46:06;23.65;;;10.57;;
56331;SDS011;42237;53.340;6.812;2022-08-21T03:48:33;18.70;;;10.27;;
56331;SDS011;42237;53.340;6.812;2022-08-21T03:51:00;22.83;;;10.15;;
56331;SDS011;42237;53.340;6.812;2022-08-21T03:53:26;19.77;;;10.05;;
56331;SDS011;42237;53.340;6.812;2022-08-21T03:55:51;15.90;;;9.57;;
56331;SDS011;42237;53.340;6.812;2022-08-21T03:58:18;23.80;;;10.52;;
56331;SDS011;42237;53.340;6.812;2022-08-21T04:00:49;22.33;;;10.48;;
56331;SDS011;42237;53.340;6.812;2022-08-21T04:03:17;18.02;;;9.40;;
56331;SDS011;42237;53.340;6.812;2022-08-21T04:05:43;24.00;;;10.68;;
56331;SDS011;42237;53.340;6.812;2022-08-21T04:08:10;21.33;;;11.15;;
56331;SDS011;42237;53.340;6.812;2022-08-21T04:10:38;21.30;;;10.32;;
56331;SDS011;42237;53.340;6.812;2022-08-21T04:13:05;23.02;;;10.77;;
56331;SDS011;42237;53.340;6.812;2022-08-21T04:15:32;22.63;;;10.80;;
56331;SDS011;42237;53.340;6.812;2022-08-21T04:17:58;21.70;;;10.18;;
56331;SDS011;42237;53.340;6.812;2022-08-21T04:20:24;19.80;;;11.30;;
56331;SDS011;42237;53.340;6.812;2022-08-21T04:22:51;21.90;;;10.07;;
56331;SDS011;42237;53.340;6.812;2022-08-21T04:25:19;24.88;;;11.98;;
56331;SDS011;42237;53.340;6.812;2022-08-21T04:27:47;22.83;;;10.00;;
56331;SDS011;42237;53.340;6.812;2022-08-21T04:30:13;27.38;;;10.18;;
56331;SDS011;42237;53.340;6.812;2022-08-21T04:32:47;22.45;;;10.13;;
56331;SDS011;42237;53.340;6.812;2022-08-21T04:35:14;20.63;;;10.77;;
56331;SDS011;42237;53.340;6.812;2022-08-21T04:37:41;20.35;;;10.35;;
56331;SDS011;42237;53.340;6.812;2022-08-21T04:40:07;27.63;;;10.80;;
56331;SDS011;42237;53.340;6.812;2022-08-21T04:42:40;22.38;;;11.93;;
56331;SDS011;42237;53.340;6.812;2022-08-21T04:45:07;20.90;;;10.02;;
56331;SDS011;42237;53.340;6.812;2022-08-21T04:47:33;18.05;;;10.50;;
56331;SDS011;42237;53.340;6.812;2022-08-21T04:49:59;27.02;;;11.40;;
56331;SDS011;42237;53.340;6.812;2022-08-21T04:52:25;19.10;;;9.43;;
56331;SDS011;42237;53.340;6.812;2022-08-21T04:54:50;20.63;;;9.25;;
56331;SDS011;42237;53.340;6.812;2022-08-21T04:57:17;22.75;;;9.48;;
56331;SDS011;42237;53.340;6.812;2022-08-21T04:59:48;21.23;;;9.57;;
56331;SDS011;42237;53.340;6.812;2022-08-21T05:02:16;23.50;;;10.50;;
56331;SDS011;42237;53.340;6.812;2022-08-21T05:04:47;21.70;;;10.80;;
56331;SDS011;42237;53.340;6.812;2022-08-21T05:07:20;21.85;;;9.65;;
56331;SDS011;42237;53.340;6.812;2022-08-21T05:09:50;15.55;;;9.48;;
56331;SDS011;42237;53.340;6.812;2022-08-21T05:12:17;17.33;;;9.50;;
56331;SDS011;42237;53.340;6.812;2022-08-21T05:14:43;23.52;;;11.32;;
56331;SDS011;42237;53.340;6.812;2022-08-21T05:17:09;20.83;;;10.68;;
56331;SDS011;42237;53.340;6.812;2022-08-21T05:19:35;25.40;;;11.02;;
56331;SDS011;42237;53.340;6.812;2022-08-21T05:22:01;21.02;;;10.55;;
56331;SDS011;42237;53.340;6.812;2022-08-21T05:24:27;20.60;;;10.35;;
56331;SDS011;42237;53.340;6.812;2022-08-21T05:26:53;19.85;;;10.80;;
56331;SDS011;42237;53.340;6.812;2022-08-21T05:29:19;24.02;;;10.77;;
56331;SDS011;42237;53.340;6.812;2022-08-21T05:31:45;17.23;;;9.73;;
56331;SDS011;42237;53.340;6.812;2022-08-21T05:34:13;18.33;;;10.40;;
56331;SDS011;42237;53.340;6.812;2022-08-21T05:36:39;19.00;;;9.80;;
56331;SDS011;42237;53.340;6.812;2022-08-21T05:39:05;18.35;;;9.75;;
56331;SDS011;42237;53.340;6.812;2022-08-21T05:41:31;20.02;;;8.90;;
56331;SDS011;42237;53.340;6.812;2022-08-21T05:43:57;26.45;;;10.55;;
56331;SDS011;42237;53.340;6.812;2022-08-21T05:46:22;17.30;;;9.80;;
56331;SDS011;42237;53.340;6.812;2022-08-21T05:48:48;14.75;;;10.18;;
56331;SDS011;42237;53.340;6.812;2022-08-21T05:51:14;19.70;;;10.43;;
56331;SDS011;42237;53.340;6.812;2022-08-21T05:53:40;22.02;;;9.93;;
56331;SDS011;42237;53.340;6.812;2022-08-21T05:56:07;21.65;;;9.70;;
56331;SDS011;42237;53.340;6.812;2022-08-21T05:58:34;20.83;;;9.77;;
56331;SDS011;42237;53.340;6.812;2022-08-21T06:01:01;19.40;;;9.50;;
56331;SDS011;42237;53.340;6.812;2022-08-21T06:03:30;20.55;;;8.82;;
56331;SDS011;42237;53.340;6.812;2022-08-21T06:05:58;42.60;;;10.27;;
56331;SDS011;42237;53.340;6.812;2022-08-21T06:08:25;25.63;;;9.98;;
56331;SDS011;42237;53.340;6.812;2022-08-21T06:10:51;20.02;;;9.65;;
56331;SDS011;42237;53.340;6.812;2022-08-21T06:13:19;23.38;;;10.07;;
56331;SDS011;42237;53.340;6.812;2022-08-21T06:15:46;15.77;;;9.65;;
56331;SDS011;42237;53.340;6.812;2022-08-21T06:18:12;19.00;;;9.95;;
56331;SDS011;42237;53.340;6.812;2022-08-21T06:20:38;20.75;;;9.15;;
56331;SDS011;42237;53.340;6.812;2022-08-21T06:23:04;19.90;;;9.75;;
56331;SDS011;42237;53.340;6.812;2022-08-21T06:25:30;19.67;;;9.00;;
56331;SDS011;42237;53.340;6.812;2022-08-21T06:28:09;19.35;;;8.73;;
56331;SDS011;42237;53.340;6.812;2022-08-21T06:30:35;20.33;;;9.25;;
56331;SDS011;42237;53.340;6.812;2022-08-21T06:33:02;19.05;;;8.45;;
56331;SDS011;42237;53.340;6.812;2022-08-21T06:35:28;19.50;;;9.52;;
56331;SDS011;42237;53.340;6.812;2022-08-21T06:37:55;19.08;;;8.88;;
56331;SDS011;42237;53.340;6.812;2022-08-21T06:40:22;21.42;;;10.07;;
56331;SDS011;42237;53.340;6.812;2022-08-21T06:42:48;23.88;;;9.75;;
56331;SDS011;42237;53.340;6.812;2022-08-21T06:45:14;23.77;;;8.68;;
56331;SDS011;42237;53.340;6.812;2022-08-21T06:47:40;17.80;;;9.00;;
56331;SDS011;42237;53.340;6.812;2022-08-21T06:50:06;25.20;;;9.57;;
56331;SDS011;42237;53.340;6.812;2022-08-21T06:52:33;15.45;;;7.97;;
56331;SDS011;42237;53.340;6.812;2022-08-21T06:55:00;17.05;;;8.45;;
56331;SDS011;42237;53.340;6.812;2022-08-21T06:57:25;19.85;;;7.72;;
56331;SDS011;42237;53.340;6.812;2022-08-21T06:59:51;17.00;;;7.85;;
56331;SDS011;42237;53.340;6.812;2022-08-21T07:02:17;21.90;;;8.57;;
56331;SDS011;42237;53.340;6.812;2022-08-21T07:04:43;23.85;;;8.23;;
56331;SDS011;42237;53.340;6.812;2022-08-21T07:07:09;28.30;;;8.50;;
56331;SDS011;42237;53.340;6.812;2022-08-21T07:09:34;18.83;;;7.70;;
56331;SDS011;42237;53.340;6.812;2022-08-21T07:12:00;20.80;;;8.02;;
56331;SDS011;42237;53.340;6.812;2022-08-21T07:14:27;17.90;;;7.25;;
56331;SDS011;42237;53.340;6.812;2022-08-21T07:16:52;18.50;;;7.95;;
56331;SDS011;42237;53.340;6.812;2022-08-21T07:19:19;19.42;;;8.65;;
56331;SDS011;42237;53.340;6.812;2022-08-21T07:21:45;23.98;;;8.52;;
56331;SDS011;42237;53.340;6.812;2022-08-21T07:24:11;19.85;;;7.90;;
56331;SDS011;42237;53.340;6.812;2022-08-21T07:26:37;18.27;;;7.07;;
56331;SDS011;42237;53.340;6.812;2022-08-21T07:29:03;18.52;;;7.93;;
56331;SDS011;42237;53.340;6.812;2022-08-21T07:31:29;20.00;;;6.15;;
56331;SDS011;42237;53.340;6.812;2022-08-21T07:33:55;16.60;;;6.32;;
56331;SDS011;42237;53.340;6.812;2022-08-21T07:36:21;16.13;;;6.55;;
56331;SDS011;42237;53.340;6.812;2022-08-21T07:38:48;13.95;;;5.65;;
56331;SDS011;42237;53.340;6.812;2022-08-21T07:41:24;15.55;;;5.38;;
56331;SDS011;42237;53.340;6.812;2022-08-21T07:43:51;13.02;;;5.60;;
56331;SDS011;42237;53.340;6.812;2022-08-21T07:46:17;20.77;;;5.22;;
56331;SDS011;42237;53.340;6.812;2022-08-21T07:48:43;17.33;;;4.90;;
56331;SDS011;42237;53.340;6.812;2022-08-21T07:51:10;10.13;;;4.22;;
56331;SDS011;42237;53.340;6.812;2022-08-21T07:53:37;10.00;;;4.45;;
56331;SDS011;42237;53.340;6.812;2022-08-21T07:56:03;13.63;;;4.82;;
56331;SDS011;42237;53.340;6.812;2022-08-21T07:58:30;17.67;;;5.45;;
56331;SDS011;42237;53.340;6.812;2022-08-21T08:00:56;14.40;;;3.75;;
56331;SDS011;42237;53.340;6.812;2022-08-21T08:03:24;14.18;;;4.60;;
56331;SDS011;42237;53.340;6.812;2022-08-21T08:05:49;10.93;;;4.13;;
56331;SDS011;42237;53.340;6.812;2022-08-21T08:08:15;17.75;;;4.68;;
56331;SDS011;42237;53.340;6.812;2022-08-21T08:10:42;15.52;;;4.45;;
56331;SDS011;42237;53.340;6.812;2022-08-21T08:13:08;14.55;;;4.53;;
56331;SDS011;42237;53.340;6.812;2022-08-21T08:15:35;11.48;;;4.10;;
56331;SDS011;42237;53.340;6.812;2022-08-21T08:18:01;14.20;;;3.88;;
56331;SDS011;42237;53.340;6.812;2022-08-21T08:20:27;15.73;;;3.83;;
56331;SDS011;42237;53.340;6.812;2022-08-21T08:22:54;13.07;;;4.10;;
56331;SDS011;42237;53.340;6.812;2022-08-21T08:25:21;13.80;;;3.75;;
56331;SDS011;42237;53.340;6.812;2022-08-21T08:27:48;10.52;;;2.88;;
56331;SDS011;42237;53.340;6.812;2022-08-21T08:30:15;12.38;;;2.85;;
56331;SDS011;42237;53.340;6.812;2022-08-21T08:32:43;15.60;;;3.50;;
56331;SDS011;42237;53.340;6.812;2022-08-21T08:35:10;15.05;;;3.47;;
56331;SDS011;42237;53.340;6.812;2022-08-21T08:37:36;11.90;;;2.83;;
56331;SDS011;42237;53.340;6.812;2022-08-21T08:40:05;10.43;;;3.50;;
56331;SDS011;42237;53.340;6.812;2022-08-21T08:42:35;10.43;;;3.33;;
56331;SDS011;42237;53.340;6.812;2022-08-21T08:45:06;12.23;;;3.45;;
56331;SDS011;42237;53.340;6.812;2022-08-21T08:47:43;10.95;;;3.20;;
56331;SDS011;42237;53.340;6.812;2022-08-21T08:50:16;9.80;;;3.63;;
56331;SDS011;42237;53.340;6.812;2022-08-21T08:52:49;10.32;;;3.13;;
56331;SDS011;42237;53.340;6.812;2022-08-21T08:55:26;11.32;;;3.30;;
56331;SDS011;42237;53.340;6.812;2022-08-21T08:58:01;14.13;;;3.90;;
56331;SDS011;42237;53.340;6.812;2022-08-21T09:00:28;15.95;;;3.90;;
56331;SDS011;42237;53.340;6.812;2022-08-21T09:02:55;15.23;;;4.03;;
56331;SDS011;42237;53.340;6.812;2022-08-21T09:13:21;14.05;;;4.65;;
56331;SDS011;42237;53.340;6.812;2022-08-21T09:16:01;17.80;;;4.07;;
56331;SDS011;42237;53.340;6.812;2022-08-21T09:26:54;8.95;;;4.10;;
56331;SDS011;42237;53.340;6.812;2022-08-21T09:29:40;16.23;;;4.60;;
56331;SDS011;42237;53.340;6.812;2022-08-21T09:32:16;13.98;;;4.57;;
56331;SDS011;42237;53.340;6.812;2022-08-21T09:34:54;15.82;;;4.38;;
56331;SDS011;42237;53.340;6.812;2022-08-21T09:43:24;13.88;;;4.63;;
56331;SDS011;42237;53.340;6.812;2022-08-21T09:46:00;18.83;;;4.68;;
56331;SDS011;42237;53.340;6.812;2022-08-21T09:48:46;11.88;;;4.43;;
56331;SDS011;42237;53.340;6.812;2022-08-21T09:51:25;15.13;;;4.47;;
56331;SDS011;42237;53.340;6.812;2022-08-21T09:56:35;16.95;;;4.50;;
56331;SDS011;42237;53.340;6.812;2022-08-21T09:59:34;13.43;;;4.60;;
56331;SDS011;42237;53.340;6.812;2022-08-21T10:02:01;16.20;;;4.30;;
56331;SDS011;42237;53.340;6.812;2022-08-21T10:04:39;11.60;;;4.22;;
56331;SDS011;42237;53.340;6.812;2022-08-21T10:07:07;16.42;;;3.83;;
56331;SDS011;42237;53.340;6.812;2022-08-21T10:09:35;10.23;;;4.53;;
56331;SDS011;42237;53.340;6.812;2022-08-21T10:20:17;20.13;;;4.93;;
56331;SDS011;42237;53.340;6.812;2022-08-21T10:22:48;16.60;;;4.53;;
56331;SDS011;42237;53.340;6.812;2022-08-21T10:25:28;15.50;;;4.10;;
56331;SDS011;42237;53.340;6.812;2022-08-21T10:31:03;13.63;;;4.07;;
56331;SDS011;42237;53.340;6.812;2022-08-21T10:33:50;15.50;;;4.22;;
56331;SDS011;42237;53.340;6.812;2022-08-21T10:36:45;14.85;;;4.30;;
56331;SDS011;42237;53.340;6.812;2022-08-21T10:39:32;13.55;;;4.13;;
56331;SDS011;42237;53.340;6.812;2022-08-21T10:44:54;15.77;;;4.28;;
56331;SDS011;42237;53.340;6.812;2022-08-21T10:47:33;13.93;;;4.30;;
56331;SDS011;42237;53.340;6.812;2022-08-21T10:50:19;14.18;;;3.90;;
56331;SDS011;42237;53.340;6.812;2022-08-21T10:58:37;12.30;;;3.63;;
56331;SDS011;42237;53.340;6.812;2022-08-21T11:04:04;14.65;;;4.00;;
56331;SDS011;42237;53.340;6.812;2022-08-21T11:06:49;14.85;;;3.55;;
56331;SDS011;42237;53.340;6.812;2022-08-21T11:09:22;11.88;;;3.17;;
56331;SDS011;42237;53.340;6.812;2022-08-21T11:11:58;11.38;;;3.45;;
56331;SDS011;42237;53.340;6.812;2022-08-21T11:17:32;11.98;;;3.55;;
56331;SDS011;42237;53.340;6.812;2022-08-21T11:20:10;10.55;;;3.80;;
56331;SDS011;42237;53.340;6.812;2022-08-21T11:23:17;12.23;;;3.97;;
56331;SDS011;42237;53.340;6.812;2022-08-21T11:25:44;9.45;;;3.67;;
56331;SDS011;42237;53.340;6.812;2022-08-21T11:28:20;11.10;;;3.63;;
56331;SDS011;42237;53.340;6.812;2022-08-21T11:31:06;10.90;;;3.72;;
56331;SDS011;42237;53.340;6.812;2022-08-21T11:36:37;10.30;;;3.78;;
56331;SDS011;42237;53.340;6.812;2022-08-21T11:47:22;13.63;;;4.53;;
56331;SDS011;42237;53.340;6.812;2022-08-21T11:52:38;8.88;;;4.43;;
56331;SDS011;42237;53.340;6.812;2022-08-21T11:55:15;12.93;;;3.78;;
56331;SDS011;42237;53.340;6.812;2022-08-21T12:00:16;10.32;;;4.38;;
56331;SDS011;42237;53.340;6.812;2022-08-21T12:02:52;11.60;;;3.45;;
56331;SDS011;42237;53.340;6.812;2022-08-21T12:05:25;8.93;;;3.42;;
56331;SDS011;42237;53.340;6.812;2022-08-21T12:10:31;11.55;;;3.92;;
56331;SDS011;42237;53.340;6.812;2022-08-21T12:13:10;10.48;;;4.20;;
56331;SDS011;42237;53.340;6.812;2022-08-21T12:15:46;27.23;;;5.20;;
56331;SDS011;42237;53.340;6.812;2022-08-21T12:18:20;18.65;;;4.25;;
56331;SDS011;42237;53.340;6.812;2022-08-21T12:21:03;13.60;;;4.05;;
56331;SDS011;42237;53.340;6.812;2022-08-21T12:24:04;16.10;;;4.15;;
56331;SDS011;42237;53.340;6.812;2022-08-21T12:31:53;15.52;;;4.20;;
56331;SDS011;42237;53.340;6.812;2022-08-21T12:34:31;13.63;;;3.92;;
56331;SDS011;42237;53.340;6.812;2022-08-21T12:37:57;11.00;;;4.30;;
56331;SDS011;42237;53.340;6.812;2022-08-21T12:40:09;18.00;;;3.90;;
56331;SDS011;42237;53.340;6.812;2022-08-21T12:42:43;12.40;;;3.70;;
56331;SDS011;42237;53.340;6.812;2022-08-21T12:50:58;9.45;;;3.50;;
56331;SDS011;42237;53.340;6.812;2022-08-21T12:53:56;12.00;;;3.70;;
56331;SDS011;42237;53.340;6.812;2022-08-21T12:56:29;8.63;;;3.55;;
56331;SDS011;42237;53.340;6.812;2022-08-21T12:58:57;11.02;;;3.47;;
56331;SDS011;42237;53.340;6.812;2022-08-21T13:04:07;10.65;;;2.63;;
56331;SDS011;42237;53.340;6.812;2022-08-21T13:06:44;12.88;;;3.00;;
56331;SDS011;42237;53.340;6.812;2022-08-21T13:09:16;10.13;;;2.83;;
56331;SDS011;42237;53.340;6.812;2022-08-21T13:11:45;7.72;;;2.38;;
56331;SDS011;42237;53.340;6.812;2022-08-21T13:17:03;10.10;;;2.50;;
56331;SDS011;42237;53.340;6.812;2022-08-21T13:19:32;7.75;;;2.45;;
56331;SDS011;42237;53.340;6.812;2022-08-21T13:21:59;7.45;;;2.08;;
56331;SDS011;42237;53.340;6.812;2022-08-21T13:24:26;10.07;;;2.40;;
56331;SDS011;42237;53.340;6.812;2022-08-21T13:26:54;13.35;;;2.65;;
56331;SDS011;42237;53.340;6.812;2022-08-21T13:29:22;13.85;;;3.33;;
56331;SDS011;42237;53.340;6.812;2022-08-21T13:31:53;10.55;;;2.45;;
56331;SDS011;42237;53.340;6.812;2022-08-21T13:37:00;7.75;;;2.40;;
56331;SDS011;42237;53.340;6.812;2022-08-21T13:39:29;12.73;;;2.75;;
56331;SDS011;42237;53.340;6.812;2022-08-21T13:41:56;11.32;;;2.67;;
56331;SDS011;42237;53.340;6.812;2022-08-21T13:44:33;8.20;;;2.67;;
56331;SDS011;42237;53.340;6.812;2022-08-21T13:47:10;11.05;;;2.90;;
56331;SDS011;42237;53.340;6.812;2022-08-21T13:49:48;8.52;;;2.80;;
56331;SDS011;42237;53.340;6.812;2022-08-21T13:52:22;10.95;;;3.10;;
56331;SDS011;42237;53.340;6.812;2022-08-21T13:57:33;10.52;;;2.60;;
56331;SDS011;42237;53.340;6.812;2022-08-21T14:00:13;8.35;;;2.92;;
56331;SDS011;42237;53.340;6.812;2022-08-21T14:02:41;15.35;;;2.80;;
56331;SDS011;42237;53.340;6.812;2022-08-21T14:07:50;8.00;;;2.90;;
56331;SDS011;42237;53.340;6.812;2022-08-21T14:10:30;11.23;;;3.92;;
56331;SDS011;42237;53.340;6.812;2022-08-21T14:12:58;15.85;;;3.13;;
56331;SDS011;42237;53.340;6.812;2022-08-21T14:15:28;15.15;;;3.00;;
56331;SDS011;42237;53.340;6.812;2022-08-21T14:18:15;16.83;;;3.72;;
56331;SDS011;42237;53.340;6.812;2022-08-21T14:20:43;12.32;;;3.55;;
56331;SDS011;42237;53.340;6.812;2022-08-21T14:23:10;12.30;;;3.50;;
56331;SDS011;42237;53.340;6.812;2022-08-21T14:25:44;16.17;;;3.72;;
56331;SDS011;42237;53.340;6.812;2022-08-21T14:28:27;12.13;;;3.22;;
56331;SDS011;42237;53.340;6.812;2022-08-21T14:30:56;13.73;;;3.17;;
56331;SDS011;42237;53.340;6.812;2022-08-21T14:33:27;11.90;;;3.10;;
56331;SDS011;42237;53.340;6.812;2022-08-21T14:35:55;13.05;;;3.22;;
56331;SDS011;42237;53.340;6.812;2022-08-21T14:38:22;12.80;;;3.53;;
56331;SDS011;42237;53.340;6.812;2022-08-21T14:40:51;11.77;;;3.10;;
56331;SDS011;42237;53.340;6.812;2022-08-21T14:43:18;7.18;;;2.80;;
56331;SDS011;42237;53.340;6.812;2022-08-21T14:45:45;15.80;;;3.58;;
56331;SDS011;42237;53.340;6.812;2022-08-21T14:48:11;13.82;;;3.60;;
56331;SDS011;42237;53.340;6.812;2022-08-21T14:50:37;12.48;;;3.50;;
56331;SDS011;42237;53.340;6.812;2022-08-21T14:53:03;13.38;;;3.03;;
56331;SDS011;42237;53.340;6.812;2022-08-21T14:55:30;10.68;;;2.72;;
56331;SDS011;42237;53.340;6.812;2022-08-21T14:58:15;12.65;;;2.92;;
56331;SDS011;42237;53.340;6.812;2022-08-21T15:00:40;9.75;;;3.00;;
56331;SDS011;42237;53.340;6.812;2022-08-21T15:03:06;12.30;;;3.35;;
56331;SDS011;42237;53.340;6.812;2022-08-21T15:05:32;14.45;;;3.53;;
56331;SDS011;42237;53.340;6.812;2022-08-21T15:07:57;13.85;;;3.78;;
56331;SDS011;42237;53.340;6.812;2022-08-21T15:10:23;18.65;;;3.97;;
56331;SDS011;42237;53.340;6.812;2022-08-21T15:12:49;10.75;;;3.53;;
56331;SDS011;42237;53.340;6.812;2022-08-21T15:15:15;14.73;;;3.30;;
56331;SDS011;42237;53.340;6.812;2022-08-21T15:17:40;17.27;;;4.57;;
56331;SDS011;42237;53.340;6.812;2022-08-21T15:20:06;12.48;;;3.85;;
56331;SDS011;42237;53.340;6.812;2022-08-21T15:22:34;9.43;;;3.55;;
56331;SDS011;42237;53.340;6.812;2022-08-21T15:25:00;12.45;;;3.72;;
56331;SDS011;42237;53.340;6.812;2022-08-21T15:27:26;10.57;;;3.42;;
56331;SDS011;42237;53.340;6.812;2022-08-21T15:29:53;15.20;;;3.28;;
56331;SDS011;42237;53.340;6.812;2022-08-21T15:34:49;12.90;;;3.40;;
56331;SDS011;42237;53.340;6.812;2022-08-21T15:37:16;14.43;;;2.90;;
56331;SDS011;42237;53.340;6.812;2022-08-21T15:39:43;11.85;;;3.10;;
56331;SDS011;42237;53.340;6.812;2022-08-21T15:42:09;11.32;;;3.00;;
56331;SDS011;42237;53.340;6.812;2022-08-21T15:44:36;12.05;;;3.58;;
56331;SDS011;42237;53.340;6.812;2022-08-21T15:47:02;15.80;;;3.08;;
56331;SDS011;42237;53.340;6.812;2022-08-21T15:49:27;15.52;;;3.38;;
56331;SDS011;42237;53.340;6.812;2022-08-21T15:51:53;10.75;;;3.00;;
56331;SDS011;42237;53.340;6.812;2022-08-21T15:54:19;17.23;;;2.92;;
56331;SDS011;42237;53.340;6.812;2022-08-21T15:56:46;14.85;;;3.45;;
56331;SDS011;42237;53.340;6.812;2022-08-21T15:59:18;15.48;;;2.78;;
56331;SDS011;42237;53.340;6.812;2022-08-21T16:01:47;9.52;;;3.15;;
56331;SDS011;42237;53.340;6.812;2022-08-21T16:04:24;23.88;;;3.90;;
56331;SDS011;42237;53.340;6.812;2022-08-21T16:06:51;11.98;;;3.10;;
56331;SDS011;42237;53.340;6.812;2022-08-21T16:09:17;11.48;;;3.85;;
56331;SDS011;42237;53.340;6.812;2022-08-21T16:11:43;13.90;;;3.28;;
56331;SDS011;42237;53.340;6.812;2022-08-21T16:14:13;16.65;;;3.95;;
56331;SDS011;42237;53.340;6.812;2022-08-21T16:16:40;11.98;;;3.45;;
56331;SDS011;42237;53.340;6.812;2022-08-21T16:19:07;14.55;;;3.20;;
56331;SDS011;42237;53.340;6.812;2022-08-21T16:21:33;11.57;;;3.78;;